createdAt,value
2019-03-26T00:00:04.661Z,0.00
2019-03-26T00:01:15.426Z,0.00
2019-03-26T00:02:26.660Z,0.00
2019-03-26T00:03:37.374Z,0.00
2019-03-26T00:04:48.088Z,0.00
2019-03-26T00:05:59.296Z,0.00
2019-03-26T00:07:10.509Z,0.00
2019-03-26T00:08:21.226Z,0.00
2019-03-26T00:09:31.927Z,0.00
2019-03-26T00:10:42.635Z,0.00
2019-03-26T00:11:53.428Z,0.00
2019-03-26T00:13:04.067Z,0.00
2019-03-26T00:14:15.778Z,0.00
2019-03-26T00:15:26.648Z,0.00
2019-03-26T00:16:37.361Z,0.00
2019-03-26T00:17:48.655Z,0.00
2019-03-26T00:18:59.868Z,0.00
2019-03-26T00:20:10.567Z,0.00
2019-03-26T00:21:22.273Z,0.00
2019-03-26T00:22:33.492Z,0.00
2019-03-26T00:23:44.715Z,0.00
2019-03-26T00:24:55.425Z,0.00
2019-03-26T00:26:06.134Z,0.00
2019-03-26T00:27:16.847Z,0.00
2019-03-26T00:28:27.560Z,0.00
2019-03-26T00:29:38.272Z,0.00
2019-03-26T00:30:48.985Z,0.00
2019-03-26T00:31:59.689Z,0.00
2019-03-26T00:33:10.399Z,0.00
2019-03-26T00:34:21.097Z,0.00
2019-03-26T00:35:32.309Z,0.00
2019-03-26T00:36:43.012Z,0.00
2019-03-26T00:37:53.739Z,0.00
2019-03-26T00:39:04.433Z,0.00
2019-03-26T00:40:15.151Z,0.00
2019-03-26T00:41:25.857Z,0.00
2019-03-26T00:42:36.559Z,0.00
2019-03-26T00:43:47.264Z,0.00
2019-03-26T00:44:57.970Z,0.00
2019-03-26T00:46:08.673Z,0.00
2019-03-26T00:47:19.371Z,0.00
2019-03-26T00:48:30.075Z,0.00
2019-03-26T00:49:40.770Z,0.00
2019-03-26T00:50:51.475Z,0.00
2019-03-26T00:52:02.166Z,0.00
2019-03-26T00:53:12.869Z,0.00
2019-03-26T00:54:24.061Z,0.00
2019-03-26T00:55:34.751Z,0.00
2019-03-26T00:56:45.438Z,0.00
2019-03-26T00:57:56.133Z,0.00
2019-03-26T00:59:06.831Z,0.00
2019-03-26T01:00:17.535Z,0.00
2019-03-26T01:01:28.237Z,0.00
2019-03-26T01:02:39.408Z,0.00
2019-03-26T01:03:50.644Z,0.00
2019-03-26T01:05:01.847Z,0.00
2019-03-26T01:06:12.535Z,0.00
2019-03-26T01:07:23.230Z,0.00
2019-03-26T01:08:33.925Z,0.00
2019-03-26T01:09:44.616Z,0.00
2019-03-26T01:10:55.302Z,0.00
2019-03-26T01:12:05.992Z,0.00
2019-03-26T01:13:16.696Z,0.00
2019-03-26T01:14:27.411Z,0.00
2019-03-26T01:15:38.090Z,0.00
2019-03-26T01:16:48.784Z,0.00
2019-03-26T01:17:59.472Z,0.00
2019-03-26T01:19:10.165Z,0.00
2019-03-26T01:20:20.851Z,0.00
2019-03-26T01:21:31.536Z,0.00
2019-03-26T01:22:42.217Z,0.00
2019-03-26T01:23:52.919Z,0.00
2019-03-26T01:25:03.604Z,0.00
2019-03-26T01:26:14.285Z,0.00
2019-03-26T01:27:24.981Z,0.00
2019-03-26T01:28:35.669Z,0.00
2019-03-26T01:29:46.364Z,0.00
2019-03-26T01:30:57.047Z,0.00
2019-03-26T01:32:07.737Z,0.00
2019-03-26T01:33:18.428Z,0.00
2019-03-26T01:34:29.616Z,0.00
2019-03-26T01:35:40.301Z,0.00
2019-03-26T01:36:50.991Z,0.00
2019-03-26T01:38:01.680Z,0.00
2019-03-26T01:39:12.368Z,0.00
2019-03-26T01:40:23.058Z,0.00
2019-03-26T01:41:33.761Z,0.00
2019-03-26T01:42:44.457Z,0.00
2019-03-26T01:43:55.138Z,0.00
2019-03-26T01:45:05.837Z,0.00
2019-03-26T01:46:16.518Z,0.00
2019-03-26T01:47:27.706Z,0.00
2019-03-26T01:48:38.384Z,0.00
2019-03-26T01:49:49.083Z,0.00
2019-03-26T01:50:59.773Z,0.00
2019-03-26T01:52:10.510Z,0.00
2019-03-26T01:53:21.139Z,0.00
2019-03-26T01:54:31.827Z,0.00
2019-03-26T01:55:42.519Z,0.00
2019-03-26T01:56:53.703Z,0.00
2019-03-26T01:58:04.383Z,0.00
2019-03-26T01:59:15.069Z,0.00
2019-03-26T02:00:26.248Z,0.00
2019-03-26T02:01:36.936Z,0.00
2019-03-26T02:02:48.117Z,0.00
2019-03-26T02:03:58.803Z,0.00
2019-03-26T02:05:09.499Z,0.00
2019-03-26T02:06:20.266Z,0.00
2019-03-26T02:07:30.870Z,0.00
2019-03-26T02:08:41.553Z,0.00
2019-03-26T02:09:52.243Z,0.00
2019-03-26T02:11:02.932Z,0.00
2019-03-26T02:12:13.629Z,0.00
2019-03-26T02:13:24.819Z,0.00
2019-03-26T02:14:36.987Z,0.00
2019-03-26T02:15:47.675Z,0.00
2019-03-26T02:16:58.365Z,0.00
2019-03-26T02:18:09.118Z,0.00
2019-03-26T02:19:19.731Z,0.00
2019-03-26T02:20:30.439Z,0.00
2019-03-26T02:21:41.122Z,0.00
2019-03-26T02:22:51.811Z,0.00
2019-03-26T02:24:02.670Z,0.00
2019-03-26T02:25:13.354Z,0.00
2019-03-26T02:26:24.041Z,0.00
2019-03-26T02:27:35.216Z,0.00
2019-03-26T02:28:45.893Z,0.00
2019-03-26T02:29:56.584Z,0.00
2019-03-26T02:31:07.758Z,0.00
2019-03-26T02:32:18.939Z,0.00
2019-03-26T02:33:29.619Z,0.00
2019-03-26T02:34:40.305Z,0.00
2019-03-26T02:35:51.493Z,0.00
2019-03-26T02:37:02.183Z,0.00
2019-03-26T02:38:12.874Z,0.00
2019-03-26T02:39:23.566Z,0.00
2019-03-26T02:40:34.251Z,0.00
2019-03-26T02:41:44.936Z,0.00
2019-03-26T02:42:55.620Z,0.00
2019-03-26T02:44:06.306Z,0.00
2019-03-26T02:45:17.001Z,0.00
2019-03-26T02:46:27.674Z,0.00
2019-03-26T02:47:38.357Z,0.00
2019-03-26T02:48:49.039Z,0.00
2019-03-26T02:49:59.728Z,0.00
2019-03-26T02:51:10.903Z,0.00
2019-03-26T02:52:21.585Z,0.00
2019-03-26T02:53:32.754Z,0.00
2019-03-26T02:54:43.934Z,0.00
2019-03-26T02:55:54.617Z,0.00
2019-03-26T02:57:05.307Z,0.00
2019-03-26T02:58:15.981Z,0.00
2019-03-26T02:59:26.670Z,0.00
2019-03-26T03:00:37.835Z,0.00
2019-03-26T03:01:48.510Z,0.00
2019-03-26T03:02:59.193Z,0.00
2019-03-26T03:04:09.874Z,0.00
2019-03-26T03:05:34.426Z,0.00
2019-03-26T03:06:31.728Z,0.00
2019-03-26T03:07:42.902Z,0.00
2019-03-26T03:08:53.598Z,0.00
2019-03-26T03:10:04.265Z,0.00
2019-03-26T03:11:14.938Z,0.00
2019-03-26T03:12:25.609Z,0.00
2019-03-26T03:13:36.293Z,0.00
2019-03-26T03:14:46.964Z,0.00
2019-03-26T03:15:58.644Z,0.00
2019-03-26T03:17:09.324Z,0.00
2019-03-26T03:18:20.007Z,0.00
2019-03-26T03:19:30.679Z,0.00
2019-03-26T03:20:41.355Z,0.00
2019-03-26T03:21:52.038Z,0.00
2019-03-26T03:23:02.710Z,0.00
2019-03-26T03:24:13.384Z,0.00
2019-03-26T03:25:24.061Z,0.00
2019-03-26T03:26:35.221Z,0.00
2019-03-26T03:27:45.896Z,0.00
2019-03-26T03:28:56.569Z,0.00
2019-03-26T03:30:07.261Z,0.00
2019-03-26T03:31:17.912Z,0.00
2019-03-26T03:32:28.605Z,0.00
2019-03-26T03:33:39.770Z,0.00
2019-03-26T03:34:50.941Z,0.00
2019-03-26T03:36:01.599Z,0.00
2019-03-26T03:37:12.284Z,0.00
2019-03-26T03:38:22.962Z,0.00
2019-03-26T03:39:33.622Z,0.00
2019-03-26T03:40:44.285Z,0.00
2019-03-26T03:41:54.954Z,0.00
2019-03-26T03:43:05.620Z,0.00
2019-03-26T03:44:16.291Z,0.00
2019-03-26T03:45:26.953Z,0.00
2019-03-26T03:46:37.615Z,0.00
2019-03-26T03:47:48.277Z,0.00
2019-03-26T03:48:58.944Z,0.00
2019-03-26T03:50:09.616Z,0.00
2019-03-26T03:51:20.768Z,0.00
2019-03-26T03:52:31.917Z,0.00
2019-03-26T03:53:42.583Z,0.00
2019-03-26T03:54:53.241Z,0.00
2019-03-26T03:56:03.901Z,0.00
2019-03-26T03:57:14.571Z,0.00
2019-03-26T03:58:25.236Z,0.00
2019-03-26T03:59:35.906Z,0.00
2019-03-26T04:00:46.550Z,0.00
2019-03-26T04:01:57.212Z,0.00
2019-03-26T04:03:07.871Z,0.00
2019-03-26T04:04:18.533Z,0.00
2019-03-26T04:05:29.175Z,0.00
2019-03-26T04:06:39.830Z,0.00
2019-03-26T04:07:50.632Z,0.00
2019-03-26T04:09:01.292Z,0.00
2019-03-26T04:10:11.948Z,0.00
2019-03-26T04:11:22.604Z,0.00
2019-03-26T04:12:34.745Z,0.00
2019-03-26T04:13:45.898Z,0.00
2019-03-26T04:14:56.556Z,0.00
2019-03-26T04:16:07.201Z,0.00
2019-03-26T04:17:17.858Z,0.00
2019-03-26T04:18:28.513Z,0.00
2019-03-26T04:19:39.171Z,0.00
2019-03-26T04:20:49.818Z,0.00
2019-03-26T04:22:01.468Z,0.00
2019-03-26T04:23:12.627Z,0.00
2019-03-26T04:24:23.765Z,0.00
2019-03-26T04:25:34.419Z,0.00
2019-03-26T04:26:45.060Z,0.00
2019-03-26T04:27:55.713Z,0.00
2019-03-26T04:29:06.365Z,0.00
2019-03-26T04:30:17.014Z,0.00
2019-03-26T04:31:27.673Z,0.00
2019-03-26T04:32:38.316Z,0.00
2019-03-26T04:33:48.968Z,0.00
2019-03-26T04:34:59.618Z,0.00
2019-03-26T04:36:24.808Z,0.00
2019-03-26T04:37:20.925Z,0.00
2019-03-26T04:38:31.566Z,0.00
2019-03-26T04:39:42.218Z,0.00
2019-03-26T04:40:52.862Z,0.00
2019-03-26T04:42:04.038Z,0.00
2019-03-26T04:43:14.644Z,0.00
2019-03-26T04:44:25.300Z,0.00
2019-03-26T04:45:35.948Z,0.00
2019-03-26T04:46:46.601Z,4.00
2019-03-26T04:47:57.253Z,4.00
2019-03-26T04:49:07.906Z,0.00
2019-03-26T04:50:18.571Z,4.00
2019-03-26T04:51:29.725Z,4.00
2019-03-26T04:52:40.384Z,4.00
2019-03-26T04:53:51.545Z,8.00
2019-03-26T04:55:02.199Z,8.00
2019-03-26T04:56:13.335Z,8.00
2019-03-26T04:57:23.992Z,12.00
2019-03-26T04:58:34.636Z,16.00
2019-03-26T04:59:45.793Z,16.00
2019-03-26T05:00:56.447Z,20.00
2019-03-26T05:02:07.589Z,28.00
2019-03-26T05:03:18.244Z,36.00
2019-03-26T05:04:29.397Z,40.00
2019-03-26T05:05:40.060Z,48.00
2019-03-26T05:06:50.708Z,60.00
2019-03-26T05:08:01.851Z,72.00
2019-03-26T05:09:12.502Z,80.00
2019-03-26T05:10:23.168Z,92.00
2019-03-26T05:11:33.817Z,104.00
2019-03-26T05:12:44.965Z,124.00
2019-03-26T05:13:55.623Z,140.00
2019-03-26T05:15:06.290Z,152.00
2019-03-26T05:16:16.949Z,176.00
2019-03-26T05:17:27.620Z,212.00
2019-03-26T05:18:38.280Z,252.00
2019-03-26T05:19:48.932Z,288.00
2019-03-26T05:20:59.595Z,328.00
2019-03-26T05:22:23.226Z,368.00
2019-03-26T05:23:20.903Z,412.00
2019-03-26T05:24:31.562Z,460.00
2019-03-26T05:25:42.230Z,508.00
2019-03-26T05:26:52.889Z,564.00
2019-03-26T05:28:03.543Z,604.00
2019-03-26T05:29:14.200Z,604.00
2019-03-26T05:30:24.871Z,612.00
2019-03-26T05:31:35.548Z,624.00
2019-03-26T05:32:46.709Z,668.00
2019-03-26T05:33:57.368Z,736.00
2019-03-26T05:35:08.037Z,812.00
2019-03-26T05:36:18.725Z,868.00
2019-03-26T05:37:29.388Z,908.00
2019-03-26T05:38:40.058Z,924.00
2019-03-26T05:39:50.718Z,956.00
2019-03-26T05:41:01.391Z,1000.00
2019-03-26T05:42:12.077Z,1024.00
2019-03-26T05:43:22.744Z,1004.00
2019-03-26T05:44:33.414Z,972.00
2019-03-26T05:45:44.626Z,980.00
2019-03-26T05:46:55.297Z,1012.00
2019-03-26T05:48:05.971Z,1084.00
2019-03-26T05:49:16.644Z,1192.00
2019-03-26T05:50:27.819Z,1300.00
2019-03-26T05:51:38.497Z,1396.00
2019-03-26T05:52:49.167Z,1500.00
2019-03-26T05:53:59.836Z,1636.00
2019-03-26T05:55:10.724Z,1716.00
2019-03-26T05:56:21.903Z,1692.00
2019-03-26T05:57:32.578Z,1684.00
2019-03-26T05:58:43.272Z,1664.00
2019-03-26T05:59:53.951Z,1684.00
2019-03-26T06:01:04.642Z,1680.00
2019-03-26T06:02:17.953Z,1732.00
2019-03-26T06:03:26.657Z,1812.00
2019-03-26T06:04:37.830Z,1872.00
2019-03-26T06:05:48.526Z,1956.00
2019-03-26T06:07:04.650Z,1996.00
2019-03-26T06:08:09.901Z,2036.00
2019-03-26T06:09:20.587Z,2176.00
2019-03-26T06:10:31.277Z,2376.00
2019-03-26T06:11:41.972Z,2592.00
2019-03-26T06:12:52.658Z,2568.00
2019-03-26T06:14:03.344Z,2476.00
2019-03-26T06:15:14.629Z,2428.00
2019-03-26T06:16:37.620Z,2480.00
2019-03-26T06:17:36.033Z,2640.00
2019-03-26T06:18:46.737Z,2828.00
2019-03-26T06:19:57.437Z,2956.00
2019-03-26T06:21:08.128Z,3132.00
2019-03-26T06:22:19.324Z,3520.00
2019-03-26T06:23:30.019Z,3852.00
2019-03-26T06:24:40.713Z,3996.00
2019-03-26T06:25:52.933Z,4148.00
2019-03-26T06:27:03.609Z,4252.00
2019-03-26T06:28:14.305Z,4476.00
2019-03-26T06:29:25.510Z,4812.00
2019-03-26T06:30:36.228Z,4908.00
2019-03-26T06:31:46.942Z,4892.00
2019-03-26T06:32:57.645Z,4904.00
2019-03-26T06:34:10.536Z,4824.00
2019-03-26T06:35:19.056Z,4584.00
2019-03-26T06:36:29.770Z,4440.00
2019-03-26T06:37:40.637Z,4448.00
2019-03-26T06:38:51.362Z,4488.00
2019-03-26T06:40:02.081Z,4372.00
2019-03-26T06:41:13.289Z,4168.00
2019-03-26T06:42:24.626Z,4080.00
2019-03-26T06:43:35.837Z,4080.00
2019-03-26T06:44:46.551Z,4096.00
2019-03-26T06:45:57.275Z,4212.00
2019-03-26T06:47:07.999Z,4416.00
2019-03-26T06:48:18.741Z,4692.00
2019-03-26T06:49:30.957Z,5072.00
2019-03-26T06:50:41.678Z,5328.00
2019-03-26T06:51:52.914Z,5288.00
2019-03-26T06:53:03.634Z,5116.00
2019-03-26T06:54:14.368Z,4968.00
2019-03-26T06:56:35.839Z,5052.00
2019-03-26T06:57:46.558Z,4908.00
2019-03-26T06:58:57.288Z,4956.00
2019-03-26T07:00:08.020Z,5152.00
2019-03-26T07:01:18.754Z,5388.00
2019-03-26T07:02:29.986Z,5436.00
2019-03-26T07:03:40.711Z,5428.00
2019-03-26T07:04:51.443Z,5464.00
2019-03-26T07:06:02.684Z,5352.00
2019-03-26T07:07:13.414Z,5440.00
2019-03-26T07:08:24.152Z,5728.00
2019-03-26T07:09:34.890Z,6144.00
2019-03-26T07:10:46.126Z,6284.00
2019-03-26T07:11:56.864Z,6176.00
2019-03-26T07:13:07.616Z,6044.00
2019-03-26T07:14:18.353Z,5688.00
2019-03-26T07:15:29.094Z,5636.00
2019-03-26T07:16:39.834Z,5568.00
2019-03-26T07:17:52.476Z,5268.00
2019-03-26T07:19:01.339Z,5168.00
2019-03-26T07:20:13.565Z,5276.00
2019-03-26T07:21:24.326Z,5588.00
2019-03-26T07:22:35.096Z,5828.00
2019-03-26T07:23:46.333Z,5932.00
2019-03-26T07:24:57.588Z,6028.00
2019-03-26T07:26:08.339Z,6168.00
2019-03-26T07:27:20.085Z,6328.00
2019-03-26T07:28:30.834Z,6624.00
2019-03-26T07:29:42.078Z,7148.00
2019-03-26T07:30:52.832Z,7468.00
2019-03-26T07:32:03.598Z,8108.00
2019-03-26T07:33:14.345Z,9032.00
2019-03-26T07:34:25.613Z,9596.00
2019-03-26T07:35:36.386Z,10120.00
2019-03-26T07:36:47.146Z,10380.00
2019-03-26T07:37:58.404Z,10096.00
2019-03-26T07:39:09.159Z,9876.00
2019-03-26T07:40:19.924Z,9400.00
2019-03-26T07:41:30.700Z,8928.00
2019-03-26T07:42:41.473Z,9056.00
2019-03-26T07:43:52.731Z,9552.00
2019-03-26T07:45:03.504Z,9612.00
2019-03-26T07:46:14.282Z,10132.00
2019-03-26T07:47:25.551Z,10632.00
2019-03-26T07:48:36.325Z,10500.00
2019-03-26T07:49:47.105Z,9952.00
2019-03-26T07:50:57.878Z,9240.00
2019-03-26T07:52:09.146Z,9148.00
2019-03-26T07:53:20.418Z,9748.00
2019-03-26T07:54:32.682Z,10812.00
2019-03-26T07:55:44.008Z,10972.00
2019-03-26T07:56:53.746Z,11520.00
2019-03-26T07:58:04.537Z,12296.00
2019-03-26T07:59:15.820Z,12328.00
2019-03-26T08:00:26.692Z,11932.00
2019-03-26T08:01:37.495Z,11680.00
2019-03-26T08:02:48.300Z,11756.00
2019-03-26T08:03:59.594Z,11580.00
2019-03-26T08:05:10.383Z,11160.00
2019-03-26T08:06:21.184Z,11300.00
2019-03-26T08:07:31.984Z,11912.00
2019-03-26T08:08:42.783Z,12300.00
2019-03-26T08:09:54.081Z,12168.00
2019-03-26T08:11:05.392Z,11908.00
2019-03-26T08:12:16.188Z,11956.00
2019-03-26T08:13:26.999Z,12108.00
2019-03-26T08:14:38.298Z,11752.00
2019-03-26T08:15:49.293Z,11216.00
2019-03-26T08:17:00.114Z,11476.00
2019-03-26T08:18:10.911Z,11492.00
2019-03-26T08:19:21.994Z,10988.00
2019-03-26T08:20:32.797Z,11224.00
2019-03-26T08:21:43.613Z,10504.00
2019-03-26T08:22:54.427Z,9884.00
2019-03-26T08:24:05.239Z,9344.00
2019-03-26T08:25:16.051Z,9136.00
2019-03-26T08:26:26.853Z,9200.00
2019-03-26T08:27:37.672Z,10732.00
2019-03-26T08:28:48.638Z,11968.00
2019-03-26T08:29:59.457Z,11304.00
2019-03-26T08:31:10.761Z,10408.00
2019-03-26T08:32:22.065Z,9168.00
2019-03-26T08:33:32.921Z,8888.00
2019-03-26T08:34:46.632Z,9180.00
2019-03-26T08:35:54.550Z,9448.00
2019-03-26T08:37:05.854Z,9316.00
2019-03-26T08:38:16.660Z,9124.00
2019-03-26T08:39:27.992Z,9140.00
2019-03-26T08:40:38.791Z,9000.00
2019-03-26T08:41:49.603Z,8568.00
2019-03-26T08:43:01.483Z,8128.00
2019-03-26T08:44:12.220Z,7664.00
2019-03-26T08:45:23.522Z,7260.00
2019-03-26T08:46:34.330Z,6872.00
2019-03-26T08:47:45.140Z,6832.00
2019-03-26T08:48:55.936Z,6872.00
2019-03-26T08:50:06.756Z,6760.00
2019-03-26T08:51:17.566Z,6868.00
2019-03-26T08:52:28.373Z,7372.00
2019-03-26T08:53:39.179Z,8072.00
2019-03-26T08:54:49.990Z,8032.00
2019-03-26T08:56:00.801Z,7760.00
2019-03-26T08:57:13.100Z,7488.00
2019-03-26T08:58:23.910Z,7044.00
2019-03-26T08:59:34.749Z,6664.00
2019-03-26T09:00:46.053Z,6188.00
2019-03-26T09:01:56.847Z,5612.00
2019-03-26T09:03:07.641Z,5092.00
2019-03-26T09:04:18.937Z,4840.00
2019-03-26T09:05:30.236Z,4860.00
2019-03-26T09:06:41.518Z,5000.00
2019-03-26T09:07:52.304Z,5128.00
2019-03-26T09:09:03.099Z,5232.00
2019-03-26T09:10:13.898Z,5372.00
2019-03-26T09:11:24.688Z,5496.00
2019-03-26T09:12:35.481Z,5876.00
2019-03-26T09:13:46.267Z,6560.00
2019-03-26T09:14:57.060Z,7192.00
2019-03-26T09:16:07.856Z,7852.00
2019-03-26T09:17:19.948Z,8432.00
2019-03-26T09:18:29.432Z,9008.00
2019-03-26T09:19:40.718Z,9628.00
2019-03-26T09:20:52.008Z,10356.00
2019-03-26T09:22:02.811Z,10624.00
2019-03-26T09:23:13.590Z,10408.00
2019-03-26T09:24:24.381Z,9980.00
2019-03-26T09:25:35.177Z,9340.00
2019-03-26T09:26:45.976Z,8604.00
2019-03-26T09:27:56.781Z,7908.00
2019-03-26T09:29:08.073Z,7436.00
2019-03-26T09:30:18.877Z,7244.00
2019-03-26T09:31:30.174Z,7216.00
2019-03-26T09:32:41.473Z,7016.00
2019-03-26T09:33:52.311Z,6724.00
2019-03-26T09:35:03.262Z,6468.00
2019-03-26T09:36:14.634Z,6348.00
2019-03-26T09:37:25.947Z,6596.00
2019-03-26T09:38:39.036Z,7152.00
2019-03-26T09:39:55.747Z,8132.00
2019-03-26T09:41:09.757Z,8832.00
2019-03-26T09:42:29.621Z,9216.00
2019-03-26T09:43:42.135Z,9732.00
2019-03-26T09:44:56.494Z,10148.00
2019-03-26T09:46:12.219Z,10584.00
2019-03-26T09:47:23.748Z,10260.00
2019-03-26T09:48:36.072Z,9848.00
2019-03-26T09:49:46.902Z,9492.00
2019-03-26T09:50:58.209Z,9572.00
2019-03-26T09:52:09.026Z,10428.00
2019-03-26T09:53:19.840Z,11744.00
2019-03-26T09:54:31.177Z,13400.00
2019-03-26T09:55:42.011Z,14684.00
2019-03-26T09:56:53.336Z,15652.00
2019-03-26T09:58:04.638Z,16608.00
2019-03-26T09:59:15.951Z,17032.00
2019-03-26T10:00:27.325Z,17372.00
2019-03-26T10:01:38.122Z,18048.00
2019-03-26T10:02:49.481Z,18560.00
2019-03-26T10:04:00.284Z,18272.00
2019-03-26T10:05:11.629Z,16640.00
2019-03-26T10:06:24.016Z,15368.00
2019-03-26T10:07:33.799Z,15312.00
2019-03-26T10:08:52.313Z,15264.00
2019-03-26T10:09:55.750Z,14892.00
2019-03-26T10:11:07.087Z,15444.00
2019-03-26T10:12:18.424Z,15780.00
2019-03-26T10:13:29.278Z,16252.00
2019-03-26T10:14:40.630Z,17272.00
2019-03-26T10:15:51.635Z,19392.00
2019-03-26T10:17:02.989Z,20224.00
2019-03-26T10:18:13.862Z,20160.00
2019-03-26T10:19:25.209Z,20032.00
2019-03-26T10:20:36.065Z,20960.00
2019-03-26T10:21:46.946Z,20704.00
2019-03-26T10:22:58.300Z,20288.00
2019-03-26T10:24:09.166Z,21376.00
2019-03-26T10:25:20.535Z,21632.00
2019-03-26T10:26:31.908Z,21664.00
2019-03-26T10:27:43.292Z,21952.00
2019-03-26T10:28:54.172Z,21792.00
2019-03-26T10:30:05.966Z,20800.00
2019-03-26T10:31:16.526Z,20320.00
2019-03-26T10:32:27.914Z,20736.00
2019-03-26T10:33:39.293Z,20800.00
2019-03-26T10:34:50.689Z,19936.00
2019-03-26T10:36:02.082Z,17856.00
2019-03-26T10:37:13.627Z,16780.00
2019-03-26T10:38:25.037Z,16788.00
2019-03-26T10:39:35.937Z,16908.00
2019-03-26T10:40:46.837Z,16792.00
2019-03-26T10:41:58.241Z,15864.00
2019-03-26T10:43:09.142Z,15080.00
2019-03-26T10:44:20.529Z,14076.00
2019-03-26T10:45:31.433Z,13560.00
2019-03-26T10:46:44.556Z,13688.00
2019-03-26T10:47:54.228Z,13884.00
2019-03-26T10:49:05.128Z,14396.00
2019-03-26T10:50:16.521Z,15168.00
2019-03-26T10:51:27.913Z,16412.00
2019-03-26T10:52:39.309Z,16772.00
2019-03-26T10:53:50.706Z,17536.00
2019-03-26T10:55:01.610Z,18656.00
2019-03-26T10:56:13.020Z,19040.00
2019-03-26T10:57:24.422Z,19616.00
2019-03-26T10:58:35.836Z,22304.00
2019-03-26T10:59:47.241Z,28288.00
2019-03-26T11:00:58.639Z,34784.00
2019-03-26T11:02:10.049Z,32416.00
2019-03-26T11:03:20.979Z,47232.00
2019-03-26T11:04:31.917Z,35904.00
2019-03-26T11:05:43.345Z,26272.00
2019-03-26T11:06:54.291Z,22784.00
2019-03-26T11:08:05.743Z,23872.00
2019-03-26T11:09:24.074Z,23552.00
2019-03-26T11:10:27.655Z,22496.00
2019-03-26T11:11:39.105Z,20096.00
2019-03-26T11:12:50.585Z,18176.00
2019-03-26T11:14:01.552Z,17376.00
2019-03-26T11:15:13.010Z,17376.00
2019-03-26T11:16:24.461Z,19008.00
2019-03-26T11:17:35.426Z,20192.00
2019-03-26T11:18:46.406Z,22144.00
2019-03-26T11:19:57.899Z,24256.00
2019-03-26T11:21:08.867Z,24544.00
2019-03-26T11:22:19.838Z,25184.00
2019-03-26T11:23:30.826Z,24704.00
2019-03-26T11:24:42.285Z,24032.00
2019-03-26T11:25:53.315Z,24992.00
2019-03-26T11:27:04.733Z,25152.00
2019-03-26T11:28:16.221Z,26944.00
2019-03-26T11:29:28.767Z,31392.00
2019-03-26T11:30:40.170Z,38016.00
2019-03-26T11:31:51.216Z,59008.00
2019-03-26T11:33:02.221Z,102272.00
2019-03-26T11:34:13.772Z,90176.00
2019-03-26T11:35:24.831Z,35264.00
2019-03-26T11:36:35.912Z,32960.00
2019-03-26T11:37:47.636Z,35840.00
2019-03-26T11:38:58.741Z,69888.00
2019-03-26T11:40:10.342Z,51040.00
2019-03-26T11:41:21.634Z,32224.00
2019-03-26T11:42:34.256Z,36160.00
2019-03-26T11:43:45.912Z,42592.00
2019-03-26T11:44:59.402Z,33568.00
2019-03-26T11:46:09.296Z,31456.00
2019-03-26T11:47:21.950Z,27392.00
2019-03-26T11:48:33.110Z,24512.00
2019-03-26T11:49:44.766Z,24000.00
2019-03-26T11:50:56.397Z,24640.00
2019-03-26T11:52:07.534Z,24896.00
2019-03-26T11:53:18.656Z,27520.00
2019-03-26T11:54:31.293Z,84832.00
2019-03-26T11:55:42.933Z,100032.00
2019-03-26T11:56:54.567Z,24224.00
2019-03-26T11:58:06.203Z,22080.00
2019-03-26T11:59:18.349Z,20512.00
2019-03-26T12:00:29.683Z,18496.00
2019-03-26T12:01:42.307Z,18400.00
2019-03-26T12:02:53.925Z,16208.00
2019-03-26T12:04:05.057Z,14560.00
2019-03-26T12:05:16.639Z,14036.00
2019-03-26T12:06:27.741Z,14636.00
2019-03-26T12:07:38.820Z,16340.00
2019-03-26T12:08:50.385Z,20064.00
2019-03-26T12:10:01.963Z,22848.00
2019-03-26T12:11:13.036Z,33952.00
2019-03-26T12:12:24.598Z,40096.00
2019-03-26T12:13:36.175Z,89472.00
2019-03-26T12:14:47.776Z,56864.00
2019-03-26T12:15:59.424Z,29408.00
2019-03-26T12:17:10.953Z,29792.00
2019-03-26T12:18:22.055Z,26688.00
2019-03-26T12:19:33.164Z,21984.00
2019-03-26T12:20:44.259Z,20448.00
2019-03-26T12:21:55.848Z,17024.00
2019-03-26T12:23:06.936Z,16348.00
2019-03-26T12:24:18.515Z,16560.00
2019-03-26T12:25:30.099Z,17212.00
2019-03-26T12:26:41.670Z,14180.00
2019-03-26T12:27:53.228Z,12368.00
2019-03-26T12:29:04.789Z,11780.00
2019-03-26T12:30:16.339Z,11892.00
2019-03-26T12:31:28.578Z,12028.00
2019-03-26T12:32:41.132Z,12388.00
2019-03-26T12:33:51.165Z,12960.00
2019-03-26T12:35:02.693Z,13616.00
2019-03-26T12:36:14.214Z,14252.00
2019-03-26T12:37:25.723Z,14864.00
2019-03-26T12:38:37.236Z,15436.00
2019-03-26T12:39:58.858Z,15696.00
2019-03-26T12:41:00.291Z,15684.00
2019-03-26T12:42:11.807Z,15072.00
2019-03-26T12:43:23.306Z,13772.00
2019-03-26T12:44:34.813Z,12436.00
2019-03-26T12:45:46.308Z,11900.00
2019-03-26T12:46:58.794Z,11660.00
2019-03-26T12:48:09.779Z,11576.00
2019-03-26T12:49:21.254Z,11832.00
2019-03-26T12:50:32.391Z,11912.00
2019-03-26T12:51:43.713Z,11428.00
2019-03-26T12:52:55.187Z,10604.00
2019-03-26T12:54:07.153Z,9796.00
2019-03-26T12:55:18.635Z,9252.00
2019-03-26T12:56:30.103Z,8976.00
2019-03-26T12:57:41.629Z,8944.00
2019-03-26T12:58:52.582Z,9288.00
2019-03-26T13:00:04.031Z,10096.00
2019-03-26T13:01:15.631Z,11116.00
2019-03-26T13:02:26.575Z,12168.00
2019-03-26T13:03:38.010Z,13464.00
2019-03-26T13:04:48.953Z,15388.00
2019-03-26T13:06:00.402Z,17248.00
2019-03-26T13:07:11.859Z,20608.00
2019-03-26T13:08:23.298Z,25216.00
2019-03-26T13:09:34.741Z,38880.00
2019-03-26T13:10:53.482Z,34432.00
2019-03-26T13:11:56.700Z,26304.00
2019-03-26T13:13:08.168Z,24416.00
2019-03-26T13:14:19.688Z,23424.00
2019-03-26T13:15:31.190Z,25248.00
2019-03-26T13:16:42.193Z,58720.00
2019-03-26T13:17:53.708Z,18816.00
2019-03-26T13:19:05.231Z,18784.00
2019-03-26T13:20:16.766Z,29472.00
2019-03-26T13:21:27.806Z,18848.00
2019-03-26T13:22:40.338Z,19232.00
2019-03-26T13:23:51.368Z,20224.00
2019-03-26T13:25:02.902Z,22048.00
2019-03-26T13:26:13.943Z,69760.00
2019-03-26T13:27:25.623Z,25120.00
2019-03-26T13:28:36.679Z,48224.00
2019-03-26T13:29:48.229Z,49312.00
2019-03-26T13:30:59.785Z,33504.00
2019-03-26T13:32:12.950Z,23680.00
2019-03-26T13:33:22.433Z,41600.00
2019-03-26T13:34:34.020Z,51072.00
2019-03-26T13:35:45.624Z,63776.00
2019-03-26T13:36:57.272Z,56832.00
2019-03-26T13:38:08.425Z,59200.00
2019-03-26T13:39:19.590Z,62272.00
2019-03-26T13:40:31.274Z,22816.00
2019-03-26T13:41:42.964Z,55904.00
2019-03-26T13:42:54.637Z,57280.00
2019-03-26T13:44:06.327Z,47648.00
2019-03-26T13:45:18.038Z,41216.00
2019-03-26T13:46:29.746Z,48992.00
2019-03-26T13:47:40.965Z,59136.00
2019-03-26T13:48:52.696Z,70016.00
2019-03-26T13:50:03.940Z,55264.00
2019-03-26T13:51:15.198Z,41600.00
2019-03-26T13:52:26.959Z,33984.00
2019-03-26T13:53:38.718Z,32512.00
2019-03-26T13:54:49.976Z,29120.00
2019-03-26T13:56:01.242Z,25824.00
2019-03-26T13:57:13.004Z,24640.00
2019-03-26T13:58:24.741Z,22592.00
2019-03-26T13:59:36.484Z,20576.00
2019-03-26T14:00:48.208Z,19072.00
2019-03-26T14:01:59.931Z,18048.00
2019-03-26T14:03:11.135Z,17696.00
2019-03-26T14:04:22.330Z,15384.00
2019-03-26T14:05:34.001Z,12812.00
2019-03-26T14:06:45.658Z,10772.00
2019-03-26T14:07:57.343Z,9272.00
2019-03-26T14:09:08.971Z,7712.00
2019-03-26T14:10:20.099Z,7016.00
2019-03-26T14:11:31.711Z,7160.00
2019-03-26T14:12:43.308Z,8236.00
2019-03-26T14:13:54.891Z,9424.00
2019-03-26T14:15:06.465Z,10660.00
2019-03-26T14:16:17.540Z,12444.00
2019-03-26T14:17:29.110Z,14264.00
2019-03-26T14:18:40.657Z,15336.00
2019-03-26T14:19:51.714Z,16036.00
2019-03-26T14:21:02.765Z,16416.00
2019-03-26T14:22:13.813Z,16544.00
2019-03-26T14:23:24.846Z,16500.00
2019-03-26T14:24:35.879Z,16556.00
2019-03-26T14:25:46.918Z,16480.00
2019-03-26T14:26:57.951Z,16236.00
2019-03-26T14:28:08.984Z,16264.00
2019-03-26T14:29:20.508Z,16524.00
2019-03-26T14:30:32.031Z,16552.00
2019-03-26T14:31:43.619Z,16336.00
2019-03-26T14:32:55.151Z,16072.00
2019-03-26T14:34:06.171Z,15804.00
2019-03-26T14:35:17.670Z,15600.00
2019-03-26T14:36:29.183Z,15328.00
2019-03-26T14:37:50.693Z,15480.00
2019-03-26T14:38:51.210Z,15748.00